createdAt,value
2023-04-23T00:00:13.730Z,9.03
2023-04-23T00:02:44.229Z,9.08
2023-04-23T00:05:13.164Z,8.87
2023-04-23T00:07:40.928Z,8.62
2023-04-23T00:10:09.170Z,8.34
2023-04-23T00:12:36.707Z,8.09
2023-04-23T00:15:04.975Z,7.84
2023-04-23T00:17:32.559Z,8.24
2023-04-23T00:19:59.736Z,8.81
2023-04-23T00:22:27.671Z,8.87
2023-04-23T00:24:54.690Z,8.66
2023-04-23T00:27:21.640Z,8.38
2023-04-23T00:29:51.415Z,8.08
2023-04-23T00:32:18.672Z,7.81
2023-04-23T00:34:48.901Z,7.58
2023-04-23T00:37:16.394Z,7.99
2023-04-23T00:39:44.082Z,8.55
2023-04-23T00:42:12.657Z,8.61
2023-04-23T00:44:40.167Z,8.37
2023-04-23T00:47:08.187Z,8.05
2023-04-23T00:49:35.800Z,7.77
2023-04-23T00:52:03.845Z,7.51
2023-04-23T00:54:31.381Z,7.24
2023-04-23T00:56:58.706Z,7.65
2023-04-23T00:59:27.327Z,8.23
2023-04-23T01:01:54.414Z,8.30
2023-04-23T01:04:21.562Z,8.11
2023-04-23T01:06:48.771Z,7.83
2023-04-23T01:09:17.951Z,7.55
2023-04-23T01:11:44.947Z,7.29
2023-04-23T01:14:12.086Z,7.03
2023-04-23T01:16:39.166Z,7.43
2023-04-23T01:19:07.876Z,8.00
2023-04-23T01:21:36.836Z,8.09
2023-04-23T01:24:04.763Z,7.89
2023-04-23T01:26:32.715Z,7.60
2023-04-23T01:29:00.221Z,7.32
2023-04-23T01:31:30.971Z,7.06
2023-04-23T01:33:57.991Z,6.80
2023-04-23T01:36:24.954Z,7.22
2023-04-23T01:38:52.019Z,7.84
2023-04-23T01:41:20.121Z,7.93
2023-04-23T01:43:47.203Z,7.74
2023-04-23T01:46:14.378Z,7.49
2023-04-23T01:48:41.332Z,7.23
2023-04-23T01:51:09.184Z,6.98
2023-04-23T01:53:36.157Z,6.75
2023-04-23T01:56:03.131Z,7.17
2023-04-23T01:58:30.666Z,7.76
2023-04-23T02:00:57.792Z,7.82
2023-04-23T02:03:25.494Z,7.63
2023-04-23T02:05:52.919Z,7.37
2023-04-23T02:08:20.011Z,7.10
2023-04-23T02:10:47.018Z,6.85
2023-04-23T02:13:14.868Z,6.59
2023-04-23T02:15:43.352Z,7.00
2023-04-23T02:18:11.102Z,7.57
2023-04-23T02:20:40.805Z,7.62
2023-04-23T02:23:08.907Z,7.42
2023-04-23T02:25:38.697Z,7.16
2023-04-23T02:28:07.430Z,6.90
2023-04-23T02:30:35.473Z,6.65
2023-04-23T02:33:02.627Z,6.41
2023-04-23T02:35:30.844Z,6.77
2023-04-23T02:37:57.839Z,7.34
2023-04-23T02:40:24.781Z,7.40
2023-04-23T02:42:52.092Z,7.22
2023-04-23T02:45:19.068Z,6.97
2023-04-23T02:47:46.094Z,6.71
2023-04-23T02:50:13.252Z,6.48
2023-04-23T02:52:41.375Z,6.26
2023-04-23T02:55:09.651Z,6.69
2023-04-23T02:57:37.384Z,7.27
2023-04-23T03:00:07.337Z,7.31
2023-04-23T03:02:39.921Z,7.05
2023-04-23T03:05:08.110Z,6.76
2023-04-23T03:07:35.715Z,6.47
2023-04-23T03:10:02.845Z,6.18
2023-04-23T03:12:30.913Z,5.88
2023-04-23T03:14:58.098Z,6.25
2023-04-23T03:17:25.870Z,6.78
2023-04-23T03:19:53.097Z,6.82
2023-04-23T03:22:20.710Z,6.61
2023-04-23T03:24:47.734Z,6.33
2023-04-23T03:27:15.034Z,6.06
2023-04-23T03:29:42.196Z,5.81
2023-04-23T03:32:09.486Z,5.55
2023-04-23T03:34:36.636Z,5.99
2023-04-23T03:37:03.633Z,6.60
2023-04-23T03:39:32.900Z,6.70
2023-04-23T03:42:00.026Z,6.58
2023-04-23T03:44:28.518Z,6.37
2023-04-23T03:46:55.826Z,6.14
2023-04-23T03:49:23.215Z,5.95
2023-04-23T03:51:50.173Z,5.76
2023-04-23T03:54:18.643Z,6.25
2023-04-23T03:57:09.319Z,6.95
2023-04-23T03:59:39.814Z,7.04
2023-04-23T04:02:08.422Z,6.90
2023-04-23T04:04:36.868Z,6.67
2023-04-23T04:07:04.232Z,6.47
2023-04-23T04:09:31.238Z,6.29
2023-04-23T04:12:01.754Z,6.11
2023-04-23T04:14:29.081Z,6.65
2023-04-23T04:16:56.969Z,7.43
2023-04-23T04:19:24.081Z,7.77
2023-04-23T04:21:53.892Z,7.93
2023-04-23T04:24:23.092Z,8.04
2023-04-23T04:26:52.775Z,8.20
2023-04-23T04:29:21.433Z,8.42
2023-04-23T04:31:48.957Z,8.68
2023-04-23T04:34:16.184Z,9.71
2023-04-23T04:36:43.982Z,10.88
2023-04-23T04:39:10.933Z,11.43
2023-04-23T04:41:37.977Z,11.52
2023-04-23T04:44:04.955Z,11.55
2023-04-23T04:46:31.981Z,11.66
2023-04-23T04:48:59.173Z,11.76
2023-04-23T04:51:27.295Z,11.83
2023-04-23T04:53:54.350Z,11.94
2023-04-23T04:56:24.310Z,12.07
2023-04-23T04:58:51.526Z,12.23
2023-04-23T05:01:19.528Z,12.38
2023-04-23T05:03:46.700Z,12.58
2023-04-23T05:06:14.117Z,12.75
2023-04-23T05:08:42.832Z,12.98
2023-04-23T05:11:09.997Z,13.25
2023-04-23T05:13:37.074Z,13.56
2023-04-23T05:16:04.209Z,13.85
2023-04-23T05:18:31.259Z,14.11
2023-04-23T05:20:58.482Z,14.34
2023-04-23T05:23:26.134Z,14.59
2023-04-23T05:25:56.088Z,14.97
2023-04-23T05:28:25.459Z,15.31
2023-04-23T05:30:56.334Z,15.66
2023-04-23T05:33:23.829Z,16.04
2023-04-23T05:35:50.871Z,16.39
2023-04-23T05:38:18.537Z,16.74
2023-04-23T05:40:45.866Z,17.05
2023-04-23T05:43:12.899Z,17.34
2023-04-23T05:45:39.812Z,17.76
2023-04-23T05:48:06.929Z,18.02
2023-04-23T05:50:35.728Z,18.30
2023-04-23T05:53:02.746Z,18.81
2023-04-23T05:55:29.947Z,19.20
2023-04-23T05:57:57.160Z,19.54
2023-04-23T06:00:24.175Z,19.80
2023-04-23T06:02:51.260Z,20.01
2023-04-23T06:05:18.374Z,20.23
2023-04-23T06:07:45.647Z,20.61
2023-04-23T06:10:12.910Z,20.96
2023-04-23T06:12:42.190Z,21.26
2023-04-23T06:15:09.875Z,21.54
2023-04-23T06:17:39.400Z,21.85
2023-04-23T06:20:07.668Z,22.18
2023-04-23T06:22:34.790Z,22.38
2023-04-23T06:25:01.713Z,22.66
2023-04-23T06:27:28.766Z,22.99
2023-04-23T06:29:58.516Z,23.21
2023-04-23T06:32:25.579Z,23.37
2023-04-23T06:35:00.784Z,23.54
2023-04-23T06:37:31.025Z,23.63
2023-04-23T06:39:58.779Z,23.88
2023-04-23T06:42:25.812Z,24.26
2023-04-23T06:45:22.058Z,24.78
2023-04-23T06:47:49.904Z,25.23
2023-04-23T06:50:17.064Z,25.54
2023-04-23T06:52:44.090Z,25.65
2023-04-23T06:55:11.154Z,25.99
2023-04-23T06:57:38.225Z,26.22
2023-04-23T07:00:09.130Z,26.12
2023-04-23T07:02:38.356Z,26.18
2023-04-23T07:05:05.700Z,26.46
2023-04-23T07:07:33.068Z,26.76
2023-04-23T07:10:00.188Z,26.69
2023-04-23T07:12:27.156Z,26.58
2023-04-23T07:14:54.742Z,26.83
2023-04-23T07:17:21.741Z,27.15
2023-04-23T07:19:48.806Z,27.49
2023-04-23T07:22:15.906Z,27.66
2023-04-23T07:24:43.295Z,27.92
2023-04-23T07:27:10.557Z,28.24
2023-04-23T07:29:37.599Z,28.37
2023-04-23T07:32:04.547Z,28.36
2023-04-23T07:34:31.726Z,28.34
2023-04-23T07:36:59.059Z,28.19
2023-04-23T07:39:26.177Z,28.14
2023-04-23T07:41:53.130Z,28.35
2023-04-23T07:44:20.085Z,28.57
2023-04-23T07:46:47.061Z,28.67
2023-04-23T07:49:14.231Z,28.74
2023-04-23T07:51:41.676Z,28.69
2023-04-23T07:54:09.283Z,28.63
2023-04-23T07:56:37.105Z,28.76
2023-04-23T07:59:06.042Z,28.95
2023-04-23T08:01:33.584Z,28.13
2023-04-23T08:04:00.959Z,27.56
2023-04-23T08:06:30.070Z,26.54
2023-04-23T08:08:57.653Z,26.17
2023-04-23T08:11:24.752Z,25.93
2023-04-23T08:13:51.626Z,25.96
2023-04-23T08:16:18.695Z,26.04
2023-04-23T08:18:54.518Z,25.69
2023-04-23T08:21:32.647Z,25.66
2023-04-23T08:23:59.715Z,25.80
2023-04-23T08:26:26.639Z,25.24
2023-04-23T08:28:53.770Z,25.52
2023-04-23T08:31:26.227Z,25.90
2023-04-23T08:33:54.568Z,26.09
2023-04-23T08:36:21.546Z,26.15
2023-04-23T08:38:48.744Z,26.43
2023-04-23T08:41:18.611Z,25.67
2023-04-23T08:44:12.471Z,25.42
2023-04-23T08:46:42.859Z,25.93
2023-04-23T08:49:15.620Z,26.59
2023-04-23T08:51:51.008Z,26.66
2023-04-23T08:54:28.502Z,26.37
2023-04-23T08:56:58.729Z,25.51
2023-04-23T08:59:26.642Z,25.11
2023-04-23T09:01:53.831Z,25.72
2023-04-23T09:04:21.142Z,26.26
2023-04-23T09:06:48.201Z,27.03
2023-04-23T09:09:16.042Z,27.75
2023-04-23T09:11:43.086Z,28.14
2023-04-23T09:14:10.101Z,28.28
2023-04-23T09:16:37.374Z,27.92
2023-04-23T09:19:04.531Z,28.15
2023-04-23T09:21:31.709Z,28.28
2023-04-23T09:23:58.652Z,28.38
2023-04-23T09:26:25.629Z,28.00
2023-04-23T09:28:52.910Z,28.21
2023-04-23T09:31:21.685Z,28.54
2023-04-23T09:33:53.592Z,28.28
2023-04-23T09:36:25.288Z,28.42
2023-04-23T09:38:56.769Z,28.93
2023-04-23T09:41:24.820Z,29.47
2023-04-23T09:43:55.964Z,29.19
2023-04-23T09:46:40.406Z,28.72
2023-04-23T09:49:10.805Z,29.05
2023-04-23T09:51:40.495Z,29.25
2023-04-23T09:54:23.570Z,29.00
2023-04-23T09:56:52.450Z,27.62
2023-04-23T09:59:29.035Z,28.19
2023-04-23T10:02:04.870Z,29.10
2023-04-23T10:04:32.406Z,29.14
2023-04-23T10:07:17.911Z,28.76
2023-04-23T10:09:47.699Z,28.38
2023-04-23T10:14:46.085Z,27.06
2023-04-23T10:17:13.324Z,26.02
2023-04-23T10:19:43.514Z,25.64
2023-04-23T10:22:19.342Z,25.47
2023-04-23T10:24:49.435Z,25.25
2023-04-23T10:27:26.937Z,25.26
2023-04-23T10:30:01.008Z,24.21
2023-04-23T10:32:28.015Z,23.83
2023-04-23T10:34:55.016Z,24.17
2023-04-23T10:37:22.428Z,24.95
2023-04-23T10:39:50.983Z,25.64
2023-04-23T10:42:18.857Z,25.96
2023-04-23T10:44:58.048Z,25.84
2023-04-23T10:47:28.307Z,25.82
2023-04-23T10:49:55.488Z,25.94
2023-04-23T10:52:23.762Z,26.24
2023-04-23T10:55:00.142Z,26.78
2023-04-23T10:57:27.548Z,26.89
2023-04-23T10:59:56.225Z,26.86
2023-04-23T11:02:24.171Z,26.65
2023-04-23T11:04:58.487Z,26.76
2023-04-23T11:07:32.918Z,27.20
2023-04-23T11:10:00.778Z,27.97
2023-04-23T11:12:27.759Z,28.25
2023-04-23T11:14:55.106Z,28.46
2023-04-23T11:17:23.213Z,28.59
2023-04-23T11:20:13.540Z,28.31
2023-04-23T11:22:41.987Z,29.04
2023-04-23T11:25:10.627Z,29.49
2023-04-23T11:27:44.200Z,29.99
2023-04-23T11:30:13.357Z,29.91
2023-04-23T11:32:41.762Z,29.43
2023-04-23T11:35:11.424Z,29.24
2023-04-23T11:37:43.210Z,28.97
2023-04-23T11:40:11.782Z,28.53
2023-04-23T11:42:46.743Z,27.88
2023-04-23T11:45:16.448Z,28.01
2023-04-23T11:47:46.025Z,28.59
2023-04-23T11:50:25.697Z,28.33
2023-04-23T11:52:55.915Z,27.85
2023-04-23T11:55:23.152Z,27.40
2023-04-23T11:57:51.335Z,27.05
2023-04-23T12:00:23.001Z,27.38
2023-04-23T12:03:00.393Z,27.32
2023-04-23T12:05:33.195Z,26.80
2023-04-23T12:08:12.314Z,27.10
2023-04-23T12:10:49.121Z,27.27
2023-04-23T12:13:16.198Z,27.31
2023-04-23T12:15:56.862Z,26.67
2023-04-23T12:18:38.091Z,27.02
2023-04-23T12:21:06.038Z,27.30
2023-04-23T12:23:36.774Z,27.21
2023-04-23T12:26:04.580Z,27.60
2023-04-23T12:28:31.640Z,28.11
2023-04-23T12:31:02.276Z,28.53
2023-04-23T12:33:30.547Z,28.50
2023-04-23T12:35:57.815Z,28.91
2023-04-23T12:38:28.861Z,29.25
2023-04-23T12:40:57.890Z,29.44
2023-04-23T12:43:25.254Z,29.34
2023-04-23T12:45:52.927Z,28.79
2023-04-23T12:48:20.015Z,28.53
2023-04-23T12:50:47.188Z,28.37
2023-04-23T12:53:14.410Z,28.20
2023-04-23T12:55:43.306Z,27.96
2023-04-23T12:58:10.477Z,27.48
2023-04-23T13:00:37.792Z,27.14
2023-04-23T13:03:05.171Z,27.46
2023-04-23T13:05:32.914Z,28.01
2023-04-23T13:08:00.050Z,28.41
2023-04-23T13:10:27.323Z,28.19
2023-04-23T13:12:54.375Z,27.22
2023-04-23T13:15:21.507Z,26.78
2023-04-23T13:17:48.672Z,26.78
2023-04-23T13:20:15.733Z,25.62
2023-04-23T13:22:42.703Z,25.82
2023-04-23T13:25:10.438Z,25.95
2023-04-23T13:27:37.839Z,24.76
2023-04-23T13:30:06.117Z,24.80
2023-04-23T13:32:33.762Z,24.77
2023-04-23T13:35:03.931Z,24.97
2023-04-23T13:37:32.524Z,24.74
2023-04-23T13:40:00.000Z,24.55
2023-04-23T13:42:27.093Z,24.47
2023-04-23T13:44:54.077Z,24.35
2023-04-23T13:47:21.213Z,24.12
2023-04-23T13:49:48.114Z,24.14
2023-04-23T13:52:15.418Z,24.12
2023-04-23T13:54:42.384Z,24.35
2023-04-23T13:57:09.642Z,24.29
2023-04-23T13:59:36.871Z,24.09
2023-04-23T14:02:03.823Z,23.77
2023-04-23T14:04:30.927Z,23.65
2023-04-23T14:06:58.726Z,23.52
2023-04-23T14:09:25.998Z,23.25
2023-04-23T14:11:53.177Z,22.91
2023-04-23T14:14:20.228Z,22.50
2023-04-23T14:16:47.218Z,22.26
2023-04-23T14:19:15.360Z,22.07
2023-04-23T14:21:42.465Z,22.23
2023-04-23T14:24:11.777Z,22.43
2023-04-23T14:26:48.861Z,22.61
2023-04-23T14:29:30.053Z,22.47
2023-04-23T14:31:57.045Z,22.61
2023-04-23T14:34:24.119Z,22.62
2023-04-23T14:36:53.211Z,22.65
2023-04-23T14:39:22.537Z,22.64
2023-04-23T14:41:49.546Z,22.69
2023-04-23T14:44:16.551Z,22.61
2023-04-23T14:46:44.421Z,22.54
2023-04-23T14:49:11.434Z,22.61
2023-04-23T14:51:38.638Z,22.70
2023-04-23T14:54:05.956Z,22.74
2023-04-23T14:56:33.907Z,22.66
2023-04-23T14:59:01.079Z,22.73
2023-04-23T15:01:29.596Z,22.84
2023-04-23T15:03:56.778Z,22.74
2023-04-23T15:06:23.952Z,22.57
2023-04-23T15:08:51.166Z,22.54
2023-04-23T15:11:18.288Z,22.45
2023-04-23T15:13:55.992Z,22.32
2023-04-23T15:16:46.569Z,22.28
2023-04-23T15:19:15.068Z,22.18
2023-04-23T15:21:43.237Z,22.05
2023-04-23T15:24:10.755Z,21.96
2023-04-23T15:26:37.942Z,22.12
2023-04-23T15:29:06.195Z,22.04
2023-04-23T15:31:33.311Z,22.03
2023-04-23T15:34:01.625Z,22.01
2023-04-23T15:36:28.950Z,21.95
2023-04-23T15:38:56.078Z,21.97
2023-04-23T15:41:23.083Z,21.96
2023-04-23T15:43:53.217Z,21.99
2023-04-23T15:46:20.810Z,22.26
2023-04-23T15:48:47.920Z,22.19
2023-04-23T15:51:15.013Z,22.09
2023-04-23T15:53:42.534Z,21.95
2023-04-23T15:56:09.530Z,21.79
2023-04-23T15:58:36.664Z,21.66
2023-04-23T16:01:05.389Z,21.49
2023-04-23T16:03:33.036Z,21.30
2023-04-23T16:06:00.978Z,21.15
2023-04-23T16:08:28.011Z,20.97
2023-04-23T16:10:57.164Z,20.80
2023-04-23T16:13:24.661Z,20.74
2023-04-23T16:15:51.719Z,20.71
2023-04-23T16:18:18.924Z,20.61
2023-04-23T16:20:46.080Z,20.50
2023-04-23T16:23:13.163Z,20.51
2023-04-23T16:25:40.462Z,20.50
2023-04-23T16:28:07.458Z,20.42
2023-04-23T16:30:34.483Z,20.29
2023-04-23T16:33:01.674Z,20.14
2023-04-23T16:35:28.853Z,20.02
2023-04-23T16:37:56.291Z,19.93
2023-04-23T16:40:23.273Z,19.79
2023-04-23T16:42:50.698Z,19.68
2023-04-23T16:45:22.817Z,19.52
2023-04-23T16:47:50.705Z,19.33
2023-04-23T16:50:17.865Z,19.17
2023-04-23T16:52:45.013Z,19.05
2023-04-23T16:55:11.999Z,18.91
2023-04-23T16:57:38.987Z,18.79
2023-04-23T17:00:06.774Z,18.65
2023-04-23T17:02:34.755Z,18.51
2023-04-23T17:05:02.090Z,18.38
2023-04-23T17:07:29.631Z,18.26
2023-04-23T17:09:56.804Z,18.12
2023-04-23T17:12:23.941Z,17.97
2023-04-23T17:14:50.915Z,17.84
2023-04-23T17:17:18.565Z,17.69
2023-04-23T17:19:45.920Z,17.53
2023-04-23T17:22:13.080Z,17.38
2023-04-23T17:24:40.493Z,17.23
2023-04-23T17:27:07.760Z,17.11
2023-04-23T17:29:35.086Z,16.97
2023-04-23T17:32:02.889Z,16.85
2023-04-23T17:34:30.068Z,16.73
2023-04-23T17:36:57.065Z,16.59
2023-04-23T17:39:26.153Z,16.48
2023-04-23T17:41:53.221Z,16.35
2023-04-23T17:44:20.315Z,16.21
2023-04-23T17:46:47.433Z,16.09
2023-04-23T17:49:14.748Z,15.98
2023-04-23T17:51:41.794Z,15.80
2023-04-23T17:54:08.923Z,15.65
2023-04-23T17:56:36.065Z,15.47
2023-04-23T17:59:03.865Z,15.32
2023-04-23T18:01:31.646Z,15.19
2023-04-23T18:03:59.578Z,15.07
2023-04-23T18:06:27.148Z,14.93
2023-04-23T18:08:54.092Z,14.74
2023-04-23T18:11:21.242Z,14.59
2023-04-23T18:13:50.164Z,14.47
2023-04-23T18:16:17.176Z,14.38
2023-04-23T18:18:44.122Z,14.30
2023-04-23T18:21:13.425Z,14.22
2023-04-23T18:23:40.654Z,14.13
2023-04-23T18:26:07.650Z,14.04
2023-04-23T18:28:37.194Z,13.95
2023-04-23T18:31:04.569Z,13.88
2023-04-23T18:33:32.972Z,13.77
2023-04-23T18:36:05.814Z,13.66
2023-04-23T18:38:39.046Z,13.56
2023-04-23T18:41:06.128Z,13.49
2023-04-23T18:43:34.297Z,13.41
2023-04-23T18:46:02.169Z,13.35
2023-04-23T18:48:35.673Z,13.31
2023-04-23T18:51:13.734Z,13.26
2023-04-23T18:53:40.983Z,13.20
2023-04-23T18:56:07.960Z,13.17
2023-04-23T18:58:35.200Z,13.14
2023-04-23T19:01:02.102Z,13.08
2023-04-23T19:03:29.734Z,13.00
2023-04-23T19:05:56.710Z,12.91
2023-04-23T19:08:28.668Z,12.82
2023-04-23T19:10:56.482Z,12.76
2023-04-23T19:13:23.605Z,12.72
2023-04-23T19:15:50.617Z,12.68
2023-04-23T19:18:18.036Z,12.66
2023-04-23T19:20:45.276Z,12.63
2023-04-23T19:23:12.212Z,12.60
2023-04-23T19:25:39.593Z,12.56
2023-04-23T19:28:06.762Z,12.51
2023-04-23T19:30:34.873Z,12.45
2023-04-23T19:33:02.022Z,12.38
2023-04-23T19:35:29.331Z,12.30
2023-04-23T19:37:56.431Z,12.21
2023-04-23T19:40:23.362Z,12.13
2023-04-23T19:42:50.707Z,12.04
2023-04-23T19:45:18.485Z,11.97
2023-04-23T19:47:45.681Z,11.91
2023-04-23T19:50:14.289Z,11.84
2023-04-23T19:52:41.799Z,11.78
2023-04-23T19:55:09.107Z,11.74
2023-04-23T19:57:36.734Z,11.72
2023-04-23T20:00:07.548Z,11.69
2023-04-23T20:02:35.276Z,11.66
2023-04-23T20:05:03.336Z,11.61
2023-04-23T20:07:31.071Z,11.53
2023-04-23T20:09:58.086Z,11.45
2023-04-23T20:12:25.054Z,11.38
2023-04-23T20:14:52.301Z,11.32
2023-04-23T20:17:19.371Z,11.26
2023-04-23T20:19:46.669Z,11.20
2023-04-23T20:22:13.604Z,11.14
2023-04-23T20:24:42.818Z,11.08
2023-04-23T20:27:09.832Z,11.02
2023-04-23T20:29:36.824Z,10.96
2023-04-23T20:32:04.430Z,10.91
2023-04-23T20:34:32.471Z,10.87
2023-04-23T20:36:59.814Z,10.84
2023-04-23T20:39:26.933Z,10.81
2023-04-23T20:41:57.905Z,10.78
2023-04-23T20:44:25.517Z,10.71
2023-04-23T20:46:53.611Z,11.23
2023-04-23T20:49:21.464Z,12.23
2023-04-23T20:51:48.467Z,12.57
2023-04-23T20:54:15.537Z,12.49
2023-04-23T20:56:42.638Z,12.27
2023-04-23T20:59:09.587Z,11.96
2023-04-23T21:01:37.310Z,11.68
2023-04-23T21:04:04.917Z,11.46
2023-04-23T21:06:33.519Z,11.29
2023-04-23T21:09:00.775Z,11.12
2023-04-23T21:11:27.863Z,10.96
2023-04-23T21:13:56.117Z,10.83
2023-04-23T21:16:23.237Z,10.69
2023-04-23T21:18:50.377Z,10.55
2023-04-23T21:21:17.811Z,10.98
2023-04-23T21:23:44.989Z,11.57
2023-04-23T21:26:12.073Z,11.69
2023-04-23T21:28:39.342Z,11.56
2023-04-23T21:31:14.416Z,11.38
2023-04-23T21:33:41.492Z,11.15
2023-04-23T21:36:08.573Z,10.93
2023-04-23T21:38:35.675Z,10.71
2023-04-23T21:41:02.638Z,10.53
2023-04-23T21:43:29.843Z,10.37
2023-04-23T21:45:56.854Z,10.20
2023-04-23T21:48:24.048Z,10.01
2023-04-23T21:50:53.657Z,10.41
2023-04-23T21:53:22.606Z,11.05
2023-04-23T21:55:50.274Z,11.18
2023-04-23T21:58:18.409Z,11.04
2023-04-23T22:00:45.894Z,10.82
2023-04-23T22:03:19.665Z,10.59
2023-04-23T22:05:52.430Z,10.36
2023-04-23T22:08:19.687Z,10.17
2023-04-23T22:10:46.741Z,9.99
2023-04-23T22:13:14.792Z,9.80
2023-04-23T22:15:42.436Z,10.24
2023-04-23T22:18:09.493Z,10.84
2023-04-23T22:20:38.194Z,10.93
2023-04-23T22:23:05.352Z,10.79
2023-04-23T22:25:32.827Z,10.53
2023-04-23T22:27:59.780Z,10.20
2023-04-23T22:30:26.900Z,9.95
2023-04-23T22:32:54.056Z,9.76
2023-04-23T22:35:21.203Z,9.59
2023-04-23T22:39:26.763Z,9.40
2023-04-23T22:41:53.758Z,10.08
2023-04-23T22:44:20.794Z,10.22
2023-04-23T22:46:47.766Z,10.09
2023-04-23T22:49:14.756Z,9.87
2023-04-23T22:51:42.095Z,9.66
2023-04-23T22:54:09.019Z,9.44
2023-04-23T22:56:37.698Z,9.26
2023-04-23T22:59:05.448Z,9.07
2023-04-23T23:01:32.697Z,9.50
2023-04-23T23:03:59.972Z,10.08
2023-04-23T23:06:27.206Z,10.20
2023-04-23T23:08:54.145Z,10.04
2023-04-23T23:11:21.468Z,9.79
2023-04-23T23:13:50.177Z,9.53
2023-04-23T23:16:20.026Z,9.27
2023-04-23T23:18:47.048Z,9.05
2023-04-23T23:21:14.205Z,8.86
2023-04-23T23:23:41.142Z,9.28
2023-04-23T23:26:08.213Z,9.88
2023-04-23T23:28:35.975Z,9.95
2023-04-23T23:31:02.977Z,9.78
2023-04-23T23:33:30.251Z,9.54
2023-04-23T23:35:57.504Z,9.28
2023-04-23T23:38:24.537Z,8.98
2023-04-23T23:40:52.114Z,8.73
2023-04-23T23:43:19.234Z,8.51
2023-04-23T23:45:46.388Z,8.96
2023-04-23T23:48:13.390Z,9.58
2023-04-23T23:50:40.401Z,9.66
2023-04-23T23:53:07.631Z,9.52
2023-04-23T23:55:34.760Z,9.29
2023-04-23T23:58:01.840Z,9.06
